sensor_id;sensor_type;location;lat;lon;timestamp;temperature;humidity
3816;DHT22;1923;48.154;11.536;2023-12-22T00:00:48;6.50;99.90
3816;DHT22;1923;48.154;11.536;2023-12-22T00:03:17;6.60;99.90
3816;DHT22;1923;48.154;11.536;2023-12-22T00:05:45;6.60;99.90
3816;DHT22;1923;48.154;11.536;2023-12-22T00:08:13;6.70;99.90
3816;DHT22;1923;48.154;11.536;2023-12-22T00:10:42;6.90;99.90
3816;DHT22;1923;48.154;11.536;2023-12-22T00:13:10;6.80;99.90
3816;DHT22;1923;48.154;11.536;2023-12-22T00:15:38;6.80;99.90
3816;DHT22;1923;48.154;11.536;2023-12-22T00:18:06;6.00;99.90
3816;DHT22;1923;48.154;11.536;2023-12-22T00:20:36;5.30;99.90
3816;DHT22;1923;48.154;11.536;2023-12-22T00:23:04;4.50;99.90
3816;DHT22;1923;48.154;11.536;2023-12-22T00:25:32;4.10;99.90
3816;DHT22;1923;48.154;11.536;2023-12-22T00:28:00;3.90;99.90
3816;DHT22;1923;48.154;11.536;2023-12-22T00:30:28;3.70;99.90
3816;DHT22;1923;48.154;11.536;2023-12-22T00:32:56;3.60;99.90
3816;DHT22;1923;48.154;11.536;2023-12-22T00:35:24;3.60;99.90
3816;DHT22;1923;48.154;11.536;2023-12-22T00:37:54;3.50;99.90
3816;DHT22;1923;48.154;11.536;2023-12-22T00:40:22;3.50;99.90
3816;DHT22;1923;48.154;11.536;2023-12-22T00:42:50;3.40;99.90
3816;DHT22;1923;48.154;11.536;2023-12-22T00:45:18;3.40;99.90
3816;DHT22;1923;48.154;11.536;2023-12-22T00:47:46;3.40;99.90
3816;DHT22;1923;48.154;11.536;2023-12-22T00:50:15;3.40;99.90
3816;DHT22;1923;48.154;11.536;2023-12-22T00:52:43;3.40;99.90
3816;DHT22;1923;48.154;11.536;2023-12-22T00:55:12;3.50;99.90
3816;DHT22;1923;48.154;11.536;2023-12-22T00:57:40;3.50;99.90
3816;DHT22;1923;48.154;11.536;2023-12-22T01:00:10;3.50;99.90
3816;DHT22;1923;48.154;11.536;2023-12-22T01:02:39;3.60;99.90
3816;DHT22;1923;48.154;11.536;2023-12-22T01:05:07;3.60;99.90
3816;DHT22;1923;48.154;11.536;2023-12-22T01:07:35;3.60;99.90
3816;DHT22;1923;48.154;11.536;2023-12-22T01:10:05;3.60;99.90
3816;DHT22;1923;48.154;11.536;2023-12-22T01:12:34;3.60;99.90
3816;DHT22;1923;48.154;11.536;2023-12-22T01:15:03;3.60;99.90
3816;DHT22;1923;48.154;11.536;2023-12-22T01:17:31;3.60;99.90
3816;DHT22;1923;48.154;11.536;2023-12-22T01:19:59;3.60;99.90
3816;DHT22;1923;48.154;11.536;2023-12-22T01:22:27;3.60;99.90
3816;DHT22;1923;48.154;11.536;2023-12-22T01:24:57;3.60;99.90
3816;DHT22;1923;48.154;11.536;2023-12-22T01:27:25;3.60;99.90
3816;DHT22;1923;48.154;11.536;2023-12-22T01:29:55;3.60;99.90
3816;DHT22;1923;48.154;11.536;2023-12-22T01:32:23;3.60;99.90
3816;DHT22;1923;48.154;11.536;2023-12-22T01:34:51;3.60;99.90
3816;DHT22;1923;48.154;11.536;2023-12-22T01:37:19;3.60;99.90
3816;DHT22;1923;48.154;11.536;2023-12-22T01:39:47;3.50;99.90
3816;DHT22;1923;48.154;11.536;2023-12-22T01:42:15;3.60;99.90
3816;DHT22;1923;48.154;11.536;2023-12-22T01:44:43;3.60;99.90
3816;DHT22;1923;48.154;11.536;2023-12-22T01:47:13;3.70;99.90
3816;DHT22;1923;48.154;11.536;2023-12-22T01:49:42;3.70;99.90
3816;DHT22;1923;48.154;11.536;2023-12-22T01:52:11;3.70;99.90
3816;DHT22;1923;48.154;11.536;2023-12-22T01:54:39;3.70;99.90
3816;DHT22;1923;48.154;11.536;2023-12-22T01:57:07;3.70;99.90
3816;DHT22;1923;48.154;11.536;2023-12-22T01:59:37;3.50;99.90
3816;DHT22;1923;48.154;11.536;2023-12-22T02:02:05;3.60;99.90
3816;DHT22;1923;48.154;11.536;2023-12-22T02:04:34;3.50;99.90
3816;DHT22;1923;48.154;11.536;2023-12-22T02:07:03;3.50;99.90
3816;DHT22;1923;48.154;11.536;2023-12-22T02:09:35;3.30;99.90
3816;DHT22;1923;48.154;11.536;2023-12-22T02:12:04;3.20;99.90
3816;DHT22;1923;48.154;11.536;2023-12-22T02:14:32;3.20;99.90
3816;DHT22;1923;48.154;11.536;2023-12-22T02:17:10;3.20;99.90
3816;DHT22;1923;48.154;11.536;2023-12-22T02:19:42;3.10;99.90
3816;DHT22;1923;48.154;11.536;2023-12-22T02:22:11;3.20;99.90
3816;DHT22;1923;48.154;11.536;2023-12-22T02:24:41;3.10;99.90
3816;DHT22;1923;48.154;11.536;2023-12-22T02:27:25;3.00;99.90
3816;DHT22;1923;48.154;11.536;2023-12-22T02:30:03;3.00;99.90
3816;DHT22;1923;48.154;11.536;2023-12-22T02:32:36;2.80;99.90
3816;DHT22;1923;48.154;11.536;2023-12-22T02:35:08;2.80;99.90
3816;DHT22;1923;48.154;11.536;2023-12-22T02:37:39;2.80;99.90
3816;DHT22;1923;48.154;11.536;2023-12-22T02:40:10;2.90;99.90
3816;DHT22;1923;48.154;11.536;2023-12-22T02:42:39;2.90;99.90
3816;DHT22;1923;48.154;11.536;2023-12-22T02:45:13;2.90;99.90
3816;DHT22;1923;48.154;11.536;2023-12-22T02:47:42;3.00;99.90
3816;DHT22;1923;48.154;11.536;2023-12-22T02:50:10;2.90;99.90
3816;DHT22;1923;48.154;11.536;2023-12-22T02:52:39;3.00;99.90
3816;DHT22;1923;48.154;11.536;2023-12-22T02:55:09;3.10;99.90
3816;DHT22;1923;48.154;11.536;2023-12-22T02:57:37;3.00;99.90
3816;DHT22;1923;48.154;11.536;2023-12-22T03:00:06;3.00;99.90
3816;DHT22;1923;48.154;11.536;2023-12-22T03:02:35;3.00;99.90
3816;DHT22;1923;48.154;11.536;2023-12-22T03:05:03;3.10;99.90
3816;DHT22;1923;48.154;11.536;2023-12-22T03:07:32;3.10;99.90
3816;DHT22;1923;48.154;11.536;2023-12-22T03:10:00;3.10;99.90
3816;DHT22;1923;48.154;11.536;2023-12-22T03:12:29;3.20;99.90
3816;DHT22;1923;48.154;11.536;2023-12-22T03:14:57;3.30;99.90
3816;DHT22;1923;48.154;11.536;2023-12-22T03:17:25;3.30;99.90
3816;DHT22;1923;48.154;11.536;2023-12-22T03:19:53;3.30;99.90
3816;DHT22;1923;48.154;11.536;2023-12-22T03:22:22;3.40;99.90
3816;DHT22;1923;48.154;11.536;2023-12-22T03:24:50;3.50;99.90
3816;DHT22;1923;48.154;11.536;2023-12-22T03:27:18;3.50;99.90
3816;DHT22;1923;48.154;11.536;2023-12-22T03:29:48;3.50;99.90
3816;DHT22;1923;48.154;11.536;2023-12-22T03:32:16;3.60;99.90
3816;DHT22;1923;48.154;11.536;2023-12-22T03:34:44;3.70;99.90
3816;DHT22;1923;48.154;11.536;2023-12-22T03:37:12;3.70;99.90
3816;DHT22;1923;48.154;11.536;2023-12-22T03:39:40;3.70;99.90
3816;DHT22;1923;48.154;11.536;2023-12-22T03:42:08;3.70;99.90
3816;DHT22;1923;48.154;11.536;2023-12-22T03:44:36;3.70;99.90
3816;DHT22;1923;48.154;11.536;2023-12-22T03:47:06;3.80;99.90
3816;DHT22;1923;48.154;11.536;2023-12-22T03:49:34;3.80;99.90
3816;DHT22;1923;48.154;11.536;2023-12-22T03:52:02;3.80;99.90
3816;DHT22;1923;48.154;11.536;2023-12-22T03:54:33;3.80;99.90
3816;DHT22;1923;48.154;11.536;2023-12-22T03:57:01;3.80;99.90
3816;DHT22;1923;48.154;11.536;2023-12-22T03:59:29;3.80;99.90
3816;DHT22;1923;48.154;11.536;2023-12-22T04:01:57;3.90;99.90
3816;DHT22;1923;48.154;11.536;2023-12-22T04:04:29;4.00;99.90
3816;DHT22;1923;48.154;11.536;2023-12-22T04:06:58;4.00;99.90
3816;DHT22;1923;48.154;11.536;2023-12-22T04:09:26;4.00;99.90
3816;DHT22;1923;48.154;11.536;2023-12-22T04:11:54;4.00;99.90
3816;DHT22;1923;48.154;11.536;2023-12-22T04:14:22;4.20;99.90
3816;DHT22;1923;48.154;11.536;2023-12-22T04:16:50;4.30;99.90
3816;DHT22;1923;48.154;11.536;2023-12-22T04:19:19;4.40;99.90
3816;DHT22;1923;48.154;11.536;2023-12-22T04:21:49;4.50;99.90
3816;DHT22;1923;48.154;11.536;2023-12-22T04:24:17;4.60;99.90
3816;DHT22;1923;48.154;11.536;2023-12-22T04:26:45;4.70;99.90
3816;DHT22;1923;48.154;11.536;2023-12-22T04:29:14;4.80;99.90
3816;DHT22;1923;48.154;11.536;2023-12-22T04:31:42;4.90;99.90
3816;DHT22;1923;48.154;11.536;2023-12-22T04:34:11;4.90;99.90
3816;DHT22;1923;48.154;11.536;2023-12-22T04:36:39;5.00;99.90
3816;DHT22;1923;48.154;11.536;2023-12-22T04:39:08;5.10;99.90
3816;DHT22;1923;48.154;11.536;2023-12-22T04:41:36;5.10;99.90
3816;DHT22;1923;48.154;11.536;2023-12-22T04:44:04;5.10;99.90
3816;DHT22;1923;48.154;11.536;2023-12-22T04:46:32;5.20;99.90
3816;DHT22;1923;48.154;11.536;2023-12-22T04:49:00;5.20;99.90
3816;DHT22;1923;48.154;11.536;2023-12-22T04:51:29;5.30;99.90
3816;DHT22;1923;48.154;11.536;2023-12-22T04:53:57;5.30;99.90
3816;DHT22;1923;48.154;11.536;2023-12-22T04:56:26;5.40;99.90
3816;DHT22;1923;48.154;11.536;2023-12-22T04:58:54;5.50;99.90
3816;DHT22;1923;48.154;11.536;2023-12-22T05:01:22;5.50;99.90
3816;DHT22;1923;48.154;11.536;2023-12-22T05:03:50;5.60;99.90
3816;DHT22;1923;48.154;11.536;2023-12-22T05:06:20;5.70;99.90
3816;DHT22;1923;48.154;11.536;2023-12-22T05:08:48;5.70;99.90
3816;DHT22;1923;48.154;11.536;2023-12-22T05:11:16;5.80;99.90
3816;DHT22;1923;48.154;11.536;2023-12-22T05:13:46;5.80;99.90
3816;DHT22;1923;48.154;11.536;2023-12-22T05:16:14;5.80;99.90
3816;DHT22;1923;48.154;11.536;2023-12-22T05:18:42;5.90;99.90
3816;DHT22;1923;48.154;11.536;2023-12-22T05:21:12;5.90;99.90
3816;DHT22;1923;48.154;11.536;2023-12-22T05:23:40;6.00;99.90
3816;DHT22;1923;48.154;11.536;2023-12-22T05:26:08;6.10;99.90
3816;DHT22;1923;48.154;11.536;2023-12-22T05:28:36;6.10;99.90
3816;DHT22;1923;48.154;11.536;2023-12-22T05:31:06;6.20;99.90
3816;DHT22;1923;48.154;11.536;2023-12-22T05:33:34;6.20;99.90
3816;DHT22;1923;48.154;11.536;2023-12-22T05:36:02;6.10;99.90
3816;DHT22;1923;48.154;11.536;2023-12-22T05:38:30;6.30;99.90
3816;DHT22;1923;48.154;11.536;2023-12-22T05:40:58;6.30;99.90
3816;DHT22;1923;48.154;11.536;2023-12-22T05:43:27;6.40;99.90
3816;DHT22;1923;48.154;11.536;2023-12-22T05:45:55;6.40;99.90
3816;DHT22;1923;48.154;11.536;2023-12-22T05:48:24;6.40;99.90
3816;DHT22;1923;48.154;11.536;2023-12-22T05:50:52;6.30;99.90
3816;DHT22;1923;48.154;11.536;2023-12-22T05:53:20;6.30;99.90
3816;DHT22;1923;48.154;11.536;2023-12-22T05:55:48;6.30;99.90
3816;DHT22;1923;48.154;11.536;2023-12-22T05:58:17;6.20;99.90
3816;DHT22;1923;48.154;11.536;2023-12-22T06:00:45;6.20;99.90
3816;DHT22;1923;48.154;11.536;2023-12-22T06:03:13;6.00;99.90
3816;DHT22;1923;48.154;11.536;2023-12-22T06:05:42;5.80;99.90
3816;DHT22;1923;48.154;11.536;2023-12-22T06:08:11;5.70;99.90
3816;DHT22;1923;48.154;11.536;2023-12-22T06:10:39;5.50;99.90
3816;DHT22;1923;48.154;11.536;2023-12-22T06:13:07;5.40;99.90
3816;DHT22;1923;48.154;11.536;2023-12-22T06:15:35;5.20;99.90
3816;DHT22;1923;48.154;11.536;2023-12-22T06:18:04;5.20;99.90
3816;DHT22;1923;48.154;11.536;2023-12-22T06:20:32;5.10;99.90
3816;DHT22;1923;48.154;11.536;2023-12-22T06:23:02;5.10;99.90
3816;DHT22;1923;48.154;11.536;2023-12-22T06:25:31;5.10;99.90
3816;DHT22;1923;48.154;11.536;2023-12-22T06:27:59;5.10;99.90
3816;DHT22;1923;48.154;11.536;2023-12-22T06:30:27;5.10;99.90
3816;DHT22;1923;48.154;11.536;2023-12-22T06:32:55;5.20;99.90
3816;DHT22;1923;48.154;11.536;2023-12-22T06:35:23;5.40;99.90
3816;DHT22;1923;48.154;11.536;2023-12-22T06:37:52;5.40;99.90
3816;DHT22;1923;48.154;11.536;2023-12-22T06:40:22;5.50;99.90
3816;DHT22;1923;48.154;11.536;2023-12-22T06:42:50;5.60;99.90
3816;DHT22;1923;48.154;11.536;2023-12-22T06:45:18;5.80;99.90
3816;DHT22;1923;48.154;11.536;2023-12-22T06:47:47;5.80;99.90
3816;DHT22;1923;48.154;11.536;2023-12-22T06:50:15;5.90;99.90
3816;DHT22;1923;48.154;11.536;2023-12-22T06:52:44;6.00;99.90
3816;DHT22;1923;48.154;11.536;2023-12-22T06:55:12;5.90;99.90
3816;DHT22;1923;48.154;11.536;2023-12-22T06:57:41;6.00;99.90
3816;DHT22;1923;48.154;11.536;2023-12-22T07:00:12;6.10;99.90
3816;DHT22;1923;48.154;11.536;2023-12-22T07:02:40;6.00;99.90
3816;DHT22;1923;48.154;11.536;2023-12-22T07:05:29;6.00;99.90
3816;DHT22;1923;48.154;11.536;2023-12-22T07:07:58;6.10;99.90
3816;DHT22;1923;48.154;11.536;2023-12-22T07:10:26;6.10;99.90
3816;DHT22;1923;48.154;11.536;2023-12-22T07:12:55;6.10;99.90
3816;DHT22;1923;48.154;11.536;2023-12-22T07:15:23;6.10;99.90
3816;DHT22;1923;48.154;11.536;2023-12-22T07:17:51;6.20;99.90
3816;DHT22;1923;48.154;11.536;2023-12-22T07:20:20;6.20;99.90
3816;DHT22;1923;48.154;11.536;2023-12-22T07:22:48;6.20;99.90
3816;DHT22;1923;48.154;11.536;2023-12-22T07:25:18;6.20;99.90
3816;DHT22;1923;48.154;11.536;2023-12-22T07:27:47;6.20;99.90
3816;DHT22;1923;48.154;11.536;2023-12-22T07:30:17;6.20;99.90
3816;DHT22;1923;48.154;11.536;2023-12-22T07:32:46;6.10;99.90
3816;DHT22;1923;48.154;11.536;2023-12-22T07:35:18;6.10;99.90
3816;DHT22;1923;48.154;11.536;2023-12-22T07:37:47;6.00;99.90
3816;DHT22;1923;48.154;11.536;2023-12-22T07:40:15;6.00;99.90
3816;DHT22;1923;48.154;11.536;2023-12-22T07:42:43;6.10;99.90
3816;DHT22;1923;48.154;11.536;2023-12-22T07:45:12;6.00;99.90
3816;DHT22;1923;48.154;11.536;2023-12-22T07:47:42;6.00;99.90
3816;DHT22;1923;48.154;11.536;2023-12-22T07:50:10;6.00;99.90
3816;DHT22;1923;48.154;11.536;2023-12-22T07:52:38;6.10;99.90
3816;DHT22;1923;48.154;11.536;2023-12-22T07:55:09;6.10;99.90
3816;DHT22;1923;48.154;11.536;2023-12-22T07:57:37;6.20;99.90
3816;DHT22;1923;48.154;11.536;2023-12-22T08:00:07;6.20;99.90
3816;DHT22;1923;48.154;11.536;2023-12-22T08:02:36;6.30;99.90
3816;DHT22;1923;48.154;11.536;2023-12-22T08:05:06;6.30;99.90
3816;DHT22;1923;48.154;11.536;2023-12-22T08:07:34;6.30;99.90
3816;DHT22;1923;48.154;11.536;2023-12-22T08:10:03;6.10;99.90
3816;DHT22;1923;48.154;11.536;2023-12-22T08:12:31;6.00;99.90
3816;DHT22;1923;48.154;11.536;2023-12-22T08:14:59;5.90;99.90
3816;DHT22;1923;48.154;11.536;2023-12-22T08:17:27;5.90;99.90
3816;DHT22;1923;48.154;11.536;2023-12-22T08:19:55;5.90;99.90
3816;DHT22;1923;48.154;11.536;2023-12-22T08:22:37;5.80;99.90
3816;DHT22;1923;48.154;11.536;2023-12-22T08:25:11;5.80;99.90
3816;DHT22;1923;48.154;11.536;2023-12-22T08:27:40;5.80;99.90
3816;DHT22;1923;48.154;11.536;2023-12-22T08:30:09;5.80;99.90
3816;DHT22;1923;48.154;11.536;2023-12-22T08:32:37;5.80;99.90
3816;DHT22;1923;48.154;11.536;2023-12-22T08:35:06;5.80;99.90
3816;DHT22;1923;48.154;11.536;2023-12-22T08:37:36;5.80;99.90
3816;DHT22;1923;48.154;11.536;2023-12-22T08:40:06;5.80;99.90
3816;DHT22;1923;48.154;11.536;2023-12-22T08:42:35;5.90;99.90
3816;DHT22;1923;48.154;11.536;2023-12-22T08:45:03;5.90;99.90
3816;DHT22;1923;48.154;11.536;2023-12-22T08:47:32;6.00;99.90
3816;DHT22;1923;48.154;11.536;2023-12-22T08:50:00;6.00;99.90
3816;DHT22;1923;48.154;11.536;2023-12-22T08:52:31;6.00;99.90
3816;DHT22;1923;48.154;11.536;2023-12-22T08:55:02;6.20;99.90
3816;DHT22;1923;48.154;11.536;2023-12-22T08:57:30;6.10;99.90
3816;DHT22;1923;48.154;11.536;2023-12-22T08:59:58;6.20;99.90
3816;DHT22;1923;48.154;11.536;2023-12-22T09:02:26;6.30;99.90
3816;DHT22;1923;48.154;11.536;2023-12-22T09:04:54;6.30;99.90
3816;DHT22;1923;48.154;11.536;2023-12-22T09:07:22;6.30;99.90
3816;DHT22;1923;48.154;11.536;2023-12-22T09:09:51;6.40;99.90
3816;DHT22;1923;48.154;11.536;2023-12-22T09:12:21;6.50;99.90
3816;DHT22;1923;48.154;11.536;2023-12-22T09:14:50;6.80;99.90
3816;DHT22;1923;48.154;11.536;2023-12-22T09:17:18;6.90;99.90
3816;DHT22;1923;48.154;11.536;2023-12-22T09:19:46;7.00;99.90
3816;DHT22;1923;48.154;11.536;2023-12-22T09:22:14;7.10;99.90
3816;DHT22;1923;48.154;11.536;2023-12-22T09:24:42;7.20;99.90
3816;DHT22;1923;48.154;11.536;2023-12-22T09:27:10;7.30;99.90
3816;DHT22;1923;48.154;11.536;2023-12-22T09:29:39;7.40;99.90
3816;DHT22;1923;48.154;11.536;2023-12-22T09:32:08;7.60;99.90
3816;DHT22;1923;48.154;11.536;2023-12-22T09:34:36;7.80;99.90
3816;DHT22;1923;48.154;11.536;2023-12-22T09:37:04;7.70;99.90
3816;DHT22;1923;48.154;11.536;2023-12-22T09:39:32;7.70;99.90
3816;DHT22;1923;48.154;11.536;2023-12-22T09:42:00;7.70;99.90
3816;DHT22;1923;48.154;11.536;2023-12-22T09:44:31;7.60;99.90
3816;DHT22;1923;48.154;11.536;2023-12-22T09:47:04;7.50;99.90
3816;DHT22;1923;48.154;11.536;2023-12-22T09:49:33;7.50;99.90
3816;DHT22;1923;48.154;11.536;2023-12-22T09:52:02;7.50;99.90
3816;DHT22;1923;48.154;11.536;2023-12-22T09:54:32;7.50;99.90
3816;DHT22;1923;48.154;11.536;2023-12-22T09:57:00;7.60;99.90
3816;DHT22;1923;48.154;11.536;2023-12-22T09:59:46;7.50;99.90
3816;DHT22;1923;48.154;11.536;2023-12-22T10:02:16;7.50;99.90
3816;DHT22;1923;48.154;11.536;2023-12-22T10:04:48;7.50;99.90
3816;DHT22;1923;48.154;11.536;2023-12-22T10:07:17;7.40;99.90
3816;DHT22;1923;48.154;11.536;2023-12-22T10:09:46;7.30;99.90
3816;DHT22;1923;48.154;11.536;2023-12-22T10:12:15;7.20;99.90
3816;DHT22;1923;48.154;11.536;2023-12-22T10:14:44;7.10;99.90
3816;DHT22;1923;48.154;11.536;2023-12-22T10:17:13;6.90;99.90
3816;DHT22;1923;48.154;11.536;2023-12-22T10:19:43;6.70;99.90
3816;DHT22;1923;48.154;11.536;2023-12-22T10:22:11;6.60;99.90
3816;DHT22;1923;48.154;11.536;2023-12-22T10:24:40;6.40;99.90
3816;DHT22;1923;48.154;11.536;2023-12-22T10:27:11;6.30;99.90
3816;DHT22;1923;48.154;11.536;2023-12-22T10:29:39;6.10;99.90
3816;DHT22;1923;48.154;11.536;2023-12-22T10:32:07;6.00;99.90
3816;DHT22;1923;48.154;11.536;2023-12-22T10:34:36;6.00;99.90
3816;DHT22;1923;48.154;11.536;2023-12-22T10:37:06;6.00;99.90
3816;DHT22;1923;48.154;11.536;2023-12-22T10:39:36;6.10;99.90
3816;DHT22;1923;48.154;11.536;2023-12-22T10:42:05;6.10;99.90
3816;DHT22;1923;48.154;11.536;2023-12-22T10:44:33;6.10;99.90
3816;DHT22;1923;48.154;11.536;2023-12-22T10:47:01;6.10;99.90
3816;DHT22;1923;48.154;11.536;2023-12-22T10:49:30;6.10;99.90
3816;DHT22;1923;48.154;11.536;2023-12-22T10:52:00;6.20;99.90
3816;DHT22;1923;48.154;11.536;2023-12-22T10:54:30;6.20;99.90
3816;DHT22;1923;48.154;11.536;2023-12-22T10:56:58;6.30;99.90
3816;DHT22;1923;48.154;11.536;2023-12-22T10:59:28;6.30;99.90
3816;DHT22;1923;48.154;11.536;2023-12-22T11:01:58;6.40;99.90
3816;DHT22;1923;48.154;11.536;2023-12-22T11:04:30;6.50;99.90
3816;DHT22;1923;48.154;11.536;2023-12-22T11:07:03;6.30;99.90
3816;DHT22;1923;48.154;11.536;2023-12-22T11:09:35;6.40;99.90
3816;DHT22;1923;48.154;11.536;2023-12-22T11:12:04;6.40;99.90
3816;DHT22;1923;48.154;11.536;2023-12-22T11:14:34;6.40;99.90
3816;DHT22;1923;48.154;11.536;2023-12-22T11:17:04;6.50;99.90
3816;DHT22;1923;48.154;11.536;2023-12-22T11:19:34;6.60;99.90
3816;DHT22;1923;48.154;11.536;2023-12-22T11:22:04;6.60;99.90
3816;DHT22;1923;48.154;11.536;2023-12-22T11:24:36;6.70;99.90
3816;DHT22;1923;48.154;11.536;2023-12-22T11:27:06;6.80;99.90
3816;DHT22;1923;48.154;11.536;2023-12-22T11:29:36;6.80;99.90
3816;DHT22;1923;48.154;11.536;2023-12-22T11:32:05;6.80;99.90
3816;DHT22;1923;48.154;11.536;2023-12-22T11:34:36;6.90;99.90
3816;DHT22;1923;48.154;11.536;2023-12-22T11:37:07;6.90;99.90
3816;DHT22;1923;48.154;11.536;2023-12-22T11:39:37;6.90;99.90
3816;DHT22;1923;48.154;11.536;2023-12-22T11:42:08;6.80;99.90
3816;DHT22;1923;48.154;11.536;2023-12-22T11:44:37;6.80;99.90
3816;DHT22;1923;48.154;11.536;2023-12-22T11:47:06;6.80;99.90
3816;DHT22;1923;48.154;11.536;2023-12-22T11:49:36;6.80;99.90
3816;DHT22;1923;48.154;11.536;2023-12-22T11:52:14;6.80;99.90
3816;DHT22;1923;48.154;11.536;2023-12-22T11:54:48;6.80;99.90
3816;DHT22;1923;48.154;11.536;2023-12-22T11:57:29;6.80;99.90
3816;DHT22;1923;48.154;11.536;2023-12-22T12:00:00;6.80;99.90
3816;DHT22;1923;48.154;11.536;2023-12-22T12:02:30;6.80;99.90
3816;DHT22;1923;48.154;11.536;2023-12-22T12:04:58;6.80;99.90
3816;DHT22;1923;48.154;11.536;2023-12-22T12:07:41;6.80;99.90
3816;DHT22;1923;48.154;11.536;2023-12-22T12:13:04;6.70;99.90
3816;DHT22;1923;48.154;11.536;2023-12-22T12:15:33;6.80;99.90
3816;DHT22;1923;48.154;11.536;2023-12-22T12:18:02;6.70;99.90
3816;DHT22;1923;48.154;11.536;2023-12-22T12:20:31;6.70;99.90
3816;DHT22;1923;48.154;11.536;2023-12-22T12:23:01;6.80;99.90
3816;DHT22;1923;48.154;11.536;2023-12-22T12:25:32;6.80;99.90
3816;DHT22;1923;48.154;11.536;2023-12-22T12:28:04;6.80;99.90
3816;DHT22;1923;48.154;11.536;2023-12-22T12:30:33;6.80;99.90
3816;DHT22;1923;48.154;11.536;2023-12-22T12:33:06;6.90;99.90
3816;DHT22;1923;48.154;11.536;2023-12-22T12:35:36;6.90;99.90
3816;DHT22;1923;48.154;11.536;2023-12-22T12:38:11;6.90;99.90
3816;DHT22;1923;48.154;11.536;2023-12-22T12:40:41;6.90;99.90
3816;DHT22;1923;48.154;11.536;2023-12-22T12:43:12;6.90;99.90
3816;DHT22;1923;48.154;11.536;2023-12-22T12:45:41;6.90;99.90
3816;DHT22;1923;48.154;11.536;2023-12-22T12:48:09;7.00;99.90
3816;DHT22;1923;48.154;11.536;2023-12-22T12:50:37;7.00;99.90
3816;DHT22;1923;48.154;11.536;2023-12-22T12:53:05;7.00;99.90
3816;DHT22;1923;48.154;11.536;2023-12-22T12:55:34;7.00;99.90
3816;DHT22;1923;48.154;11.536;2023-12-22T12:58:04;6.90;99.90
3816;DHT22;1923;48.154;11.536;2023-12-22T13:00:33;6.90;99.90
3816;DHT22;1923;48.154;11.536;2023-12-22T13:03:04;7.00;99.90
3816;DHT22;1923;48.154;11.536;2023-12-22T13:05:34;7.00;99.90
3816;DHT22;1923;48.154;11.536;2023-12-22T13:08:09;7.00;99.90
3816;DHT22;1923;48.154;11.536;2023-12-22T13:10:39;7.00;99.90
3816;DHT22;1923;48.154;11.536;2023-12-22T13:13:09;7.00;99.90
3816;DHT22;1923;48.154;11.536;2023-12-22T13:15:40;7.00;99.90
3816;DHT22;1923;48.154;11.536;2023-12-22T13:18:09;7.00;99.90
3816;DHT22;1923;48.154;11.536;2023-12-22T13:20:37;6.90;99.90
3816;DHT22;1923;48.154;11.536;2023-12-22T13:23:05;6.90;99.90
3816;DHT22;1923;48.154;11.536;2023-12-22T13:25:38;6.80;99.90
3816;DHT22;1923;48.154;11.536;2023-12-22T13:28:09;6.90;99.90
3816;DHT22;1923;48.154;11.536;2023-12-22T13:30:38;7.00;99.90
3816;DHT22;1923;48.154;11.536;2023-12-22T13:33:08;7.00;99.90
3816;DHT22;1923;48.154;11.536;2023-12-22T13:35:37;7.00;99.90
3816;DHT22;1923;48.154;11.536;2023-12-22T13:38:09;6.90;99.90
3816;DHT22;1923;48.154;11.536;2023-12-22T13:40:39;6.90;99.90
3816;DHT22;1923;48.154;11.536;2023-12-22T13:43:08;6.80;99.90
3816;DHT22;1923;48.154;11.536;2023-12-22T13:45:36;6.80;99.90
3816;DHT22;1923;48.154;11.536;2023-12-22T13:48:05;6.70;99.90
3816;DHT22;1923;48.154;11.536;2023-12-22T13:50:34;6.70;99.90
3816;DHT22;1923;48.154;11.536;2023-12-22T13:53:10;6.80;99.90
3816;DHT22;1923;48.154;11.536;2023-12-22T13:55:38;6.80;99.90
3816;DHT22;1923;48.154;11.536;2023-12-22T13:58:07;6.80;99.90
3816;DHT22;1923;48.154;11.536;2023-12-22T14:00:37;6.80;99.90
3816;DHT22;1923;48.154;11.536;2023-12-22T14:03:08;6.90;99.90
3816;DHT22;1923;48.154;11.536;2023-12-22T14:05:36;7.00;99.90
3816;DHT22;1923;48.154;11.536;2023-12-22T14:08:04;7.00;99.90
3816;DHT22;1923;48.154;11.536;2023-12-22T14:10:33;7.10;99.90
3816;DHT22;1923;48.154;11.536;2023-12-22T14:13:01;7.10;99.90
3816;DHT22;1923;48.154;11.536;2023-12-22T14:15:30;7.10;99.90
3816;DHT22;1923;48.154;11.536;2023-12-22T14:18:11;7.10;99.90
3816;DHT22;1923;48.154;11.536;2023-12-22T14:20:39;7.10;99.90
3816;DHT22;1923;48.154;11.536;2023-12-22T14:23:08;7.10;99.90
3816;DHT22;1923;48.154;11.536;2023-12-22T14:25:40;7.10;99.90
3816;DHT22;1923;48.154;11.536;2023-12-22T14:28:08;7.20;99.90
3816;DHT22;1923;48.154;11.536;2023-12-22T14:30:36;7.20;99.90
3816;DHT22;1923;48.154;11.536;2023-12-22T14:33:04;7.20;99.90
3816;DHT22;1923;48.154;11.536;2023-12-22T14:35:36;7.20;99.90
3816;DHT22;1923;48.154;11.536;2023-12-22T14:38:04;7.20;99.90
3816;DHT22;1923;48.154;11.536;2023-12-22T14:40:32;7.20;99.90
3816;DHT22;1923;48.154;11.536;2023-12-22T14:43:00;7.20;99.90
3816;DHT22;1923;48.154;11.536;2023-12-22T14:45:29;7.20;99.90
3816;DHT22;1923;48.154;11.536;2023-12-22T14:47:57;7.20;99.90
3816;DHT22;1923;48.154;11.536;2023-12-22T14:50:25;7.10;99.90
3816;DHT22;1923;48.154;11.536;2023-12-22T14:52:55;7.20;99.90
3816;DHT22;1923;48.154;11.536;2023-12-22T14:55:23;7.10;99.90
3816;DHT22;1923;48.154;11.536;2023-12-22T14:57:51;7.10;99.90
3816;DHT22;1923;48.154;11.536;2023-12-22T15:00:19;7.10;99.90
3816;DHT22;1923;48.154;11.536;2023-12-22T15:02:48;7.10;99.90
3816;DHT22;1923;48.154;11.536;2023-12-22T15:05:17;7.10;99.90
3816;DHT22;1923;48.154;11.536;2023-12-22T15:07:45;7.10;99.90
3816;DHT22;1923;48.154;11.536;2023-12-22T15:10:15;7.10;99.90
3816;DHT22;1923;48.154;11.536;2023-12-22T15:12:44;7.10;99.90
3816;DHT22;1923;48.154;11.536;2023-12-22T15:15:12;7.00;99.90
3816;DHT22;1923;48.154;11.536;2023-12-22T15:17:40;7.10;99.90
3816;DHT22;1923;48.154;11.536;2023-12-22T15:20:08;7.10;99.90
3816;DHT22;1923;48.154;11.536;2023-12-22T15:22:38;7.20;99.90
3816;DHT22;1923;48.154;11.536;2023-12-22T15:25:07;7.20;99.90
3816;DHT22;1923;48.154;11.536;2023-12-22T15:27:37;7.20;99.90
3816;DHT22;1923;48.154;11.536;2023-12-22T15:30:07;7.20;99.90
3816;DHT22;1923;48.154;11.536;2023-12-22T15:32:35;7.10;99.90
3816;DHT22;1923;48.154;11.536;2023-12-22T15:35:04;7.20;99.90
3816;DHT22;1923;48.154;11.536;2023-12-22T15:37:32;7.30;99.90
3816;DHT22;1923;48.154;11.536;2023-12-22T15:40:02;7.30;99.90
3816;DHT22;1923;48.154;11.536;2023-12-22T15:42:31;7.30;99.90
3816;DHT22;1923;48.154;11.536;2023-12-22T15:45:00;7.30;99.90
3816;DHT22;1923;48.154;11.536;2023-12-22T15:47:29;7.20;99.90
3816;DHT22;1923;48.154;11.536;2023-12-22T15:49:57;7.30;99.90
3816;DHT22;1923;48.154;11.536;2023-12-22T15:52:25;7.30;99.90
3816;DHT22;1923;48.154;11.536;2023-12-22T15:54:53;7.30;99.90
3816;DHT22;1923;48.154;11.536;2023-12-22T15:57:22;7.30;99.90
3816;DHT22;1923;48.154;11.536;2023-12-22T15:59:50;7.30;99.90
3816;DHT22;1923;48.154;11.536;2023-12-22T16:02:19;7.30;99.90
3816;DHT22;1923;48.154;11.536;2023-12-22T16:04:47;7.30;99.90
3816;DHT22;1923;48.154;11.536;2023-12-22T16:07:15;7.40;99.90
3816;DHT22;1923;48.154;11.536;2023-12-22T16:09:43;7.50;99.90
3816;DHT22;1923;48.154;11.536;2023-12-22T16:12:12;7.50;99.90
3816;DHT22;1923;48.154;11.536;2023-12-22T16:14:40;7.50;99.90
3816;DHT22;1923;48.154;11.536;2023-12-22T16:17:08;7.50;99.90